sensor_id;sensor_type;location;lat;lon;timestamp;P1;durP1;ratioP1;P2;durP2;ratioP2
57535;SDS011;43361;49.790;8.960;2022-08-19T00:01:02;9.10;;;7.38;;
57535;SDS011;43361;49.790;8.960;2022-08-19T00:11:04;9.93;;;7.50;;
57535;SDS011;43361;49.790;8.960;2022-08-19T00:21:05;8.15;;;7.03;;
57535;SDS011;43361;49.790;8.960;2022-08-19T00:31:09;7.93;;;7.13;;
57535;SDS011;43361;49.790;8.960;2022-08-19T00:41:10;7.90;;;7.10;;
57535;SDS011;43361;49.790;8.960;2022-08-19T00:51:14;8.10;;;6.63;;
57535;SDS011;43361;49.790;8.960;2022-08-19T01:01:14;7.97;;;6.95;;
57535;SDS011;43361;49.790;8.960;2022-08-19T01:11:16;7.60;;;6.80;;
57535;SDS011;43361;49.790;8.960;2022-08-19T01:21:18;7.75;;;6.95;;
57535;SDS011;43361;49.790;8.960;2022-08-19T01:31:22;7.97;;;7.18;;
57535;SDS011;43361;49.790;8.960;2022-08-19T01:41:23;9.75;;;7.50;;
57535;SDS011;43361;49.790;8.960;2022-08-19T01:51:25;8.45;;;7.53;;
57535;SDS011;43361;49.790;8.960;2022-08-19T02:01:26;8.63;;;7.72;;
57535;SDS011;43361;49.790;8.960;2022-08-19T02:11:28;8.02;;;6.97;;
57535;SDS011;43361;49.790;8.960;2022-08-19T02:21:31;8.43;;;7.30;;
57535;SDS011;43361;49.790;8.960;2022-08-19T02:31:33;8.02;;;7.15;;
57535;SDS011;43361;49.790;8.960;2022-08-19T02:41:34;7.88;;;6.78;;
57535;SDS011;43361;49.790;8.960;2022-08-19T02:51:36;9.60;;;7.13;;
57535;SDS011;43361;49.790;8.960;2022-08-19T03:01:37;7.28;;;6.47;;
57535;SDS011;43361;49.790;8.960;2022-08-19T03:11:41;7.13;;;6.43;;
57535;SDS011;43361;49.790;8.960;2022-08-19T03:21:42;8.45;;;7.00;;
57535;SDS011;43361;49.790;8.960;2022-08-19T03:31:46;8.55;;;6.90;;
57535;SDS011;43361;49.790;8.960;2022-08-19T03:41:46;9.57;;;6.72;;
57535;SDS011;43361;49.790;8.960;2022-08-19T03:51:48;8.25;;;6.80;;
57535;SDS011;43361;49.790;8.960;2022-08-19T04:01:50;8.52;;;7.18;;
57535;SDS011;43361;49.790;8.960;2022-08-19T04:11:53;8.13;;;7.13;;
57535;SDS011;43361;49.790;8.960;2022-08-19T04:21:56;7.50;;;6.80;;
57535;SDS011;43361;49.790;8.960;2022-08-19T04:31:58;7.72;;;6.93;;
57535;SDS011;43361;49.790;8.960;2022-08-19T04:41:59;7.78;;;6.70;;
57535;SDS011;43361;49.790;8.960;2022-08-19T04:52:19;7.40;;;6.65;;
57535;SDS011;43361;49.790;8.960;2022-08-19T05:02:19;9.07;;;6.78;;
57535;SDS011;43361;49.790;8.960;2022-08-19T05:12:21;7.15;;;6.25;;
57535;SDS011;43361;49.790;8.960;2022-08-19T05:22:21;7.65;;;6.50;;
57535;SDS011;43361;49.790;8.960;2022-08-19T05:32:38;7.43;;;6.65;;
57535;SDS011;43361;49.790;8.960;2022-08-19T05:42:39;6.55;;;5.95;;
57535;SDS011;43361;49.790;8.960;2022-08-19T05:52:41;8.98;;;6.70;;
57535;SDS011;43361;49.790;8.960;2022-08-19T06:02:41;6.55;;;5.65;;
57535;SDS011;43361;49.790;8.960;2022-08-19T06:12:43;12.20;;;8.25;;
57535;SDS011;43361;49.790;8.960;2022-08-19T06:22:44;14.73;;;8.32;;
57535;SDS011;43361;49.790;8.960;2022-08-19T06:32:46;10.95;;;8.23;;
57535;SDS011;43361;49.790;8.960;2022-08-19T06:42:47;14.70;;;7.60;;
57535;SDS011;43361;49.790;8.960;2022-08-19T06:52:49;11.10;;;6.75;;
57535;SDS011;43361;49.790;8.960;2022-08-19T07:02:50;9.63;;;6.70;;
57535;SDS011;43361;49.790;8.960;2022-08-19T07:12:51;8.68;;;6.93;;
57535;SDS011;43361;49.790;8.960;2022-08-19T07:22:52;11.05;;;6.85;;
57535;SDS011;43361;49.790;8.960;2022-08-19T07:32:54;8.88;;;6.50;;
57535;SDS011;43361;49.790;8.960;2022-08-19T07:42:54;9.00;;;6.68;;
57535;SDS011;43361;49.790;8.960;2022-08-19T07:52:56;9.13;;;6.65;;
57535;SDS011;43361;49.790;8.960;2022-08-19T08:02:57;8.85;;;6.25;;
57535;SDS011;43361;49.790;8.960;2022-08-19T08:12:58;7.63;;;6.05;;
57535;SDS011;43361;49.790;8.960;2022-08-19T08:22:59;8.70;;;6.07;;
57535;SDS011;43361;49.790;8.960;2022-08-19T08:33:19;8.95;;;5.80;;
57535;SDS011;43361;49.790;8.960;2022-08-19T08:43:22;13.57;;;6.43;;
57535;SDS011;43361;49.790;8.960;2022-08-19T08:53:24;9.07;;;6.18;;
57535;SDS011;43361;49.790;8.960;2022-08-19T09:03:26;7.55;;;6.18;;
57535;SDS011;43361;49.790;8.960;2022-08-19T09:13:31;8.27;;;6.20;;
57535;SDS011;43361;49.790;8.960;2022-08-19T09:23:33;10.35;;;6.50;;
57535;SDS011;43361;49.790;8.960;2022-08-19T09:33:35;9.15;;;6.32;;
57535;SDS011;43361;49.790;8.960;2022-08-19T09:43:36;9.95;;;6.40;;
57535;SDS011;43361;49.790;8.960;2022-08-19T09:53:37;10.63;;;5.82;;
57535;SDS011;43361;49.790;8.960;2022-08-19T10:03:38;8.10;;;6.43;;
57535;SDS011;43361;49.790;8.960;2022-08-19T10:13:40;13.18;;;6.88;;
57535;SDS011;43361;49.790;8.960;2022-08-19T10:23:42;37.65;;;13.02;;
57535;SDS011;43361;49.790;8.960;2022-08-19T10:33:47;149.82;;;56.92;;
57535;SDS011;43361;49.790;8.960;2022-08-19T10:43:47;73.55;;;28.42;;
57535;SDS011;43361;49.790;8.960;2022-08-19T10:53:52;65.57;;;27.38;;
57535;SDS011;43361;49.790;8.960;2022-08-19T11:03:52;68.05;;;28.02;;
57535;SDS011;43361;49.790;8.960;2022-08-19T11:13:54;64.13;;;25.67;;
57535;SDS011;43361;49.790;8.960;2022-08-19T11:23:55;63.35;;;24.25;;
57535;SDS011;43361;49.790;8.960;2022-08-19T11:33:58;53.85;;;24.08;;
57535;SDS011;43361;49.790;8.960;2022-08-19T11:43:59;50.50;;;23.17;;
57535;SDS011;43361;49.790;8.960;2022-08-19T11:54:01;49.08;;;22.98;;
57535;SDS011;43361;49.790;8.960;2022-08-19T12:04:02;47.55;;;22.38;;
57535;SDS011;43361;49.790;8.960;2022-08-19T12:14:06;51.72;;;22.45;;
57535;SDS011;43361;49.790;8.960;2022-08-19T12:24:07;45.90;;;22.48;;
57535;SDS011;43361;49.790;8.960;2022-08-19T12:34:09;49.42;;;21.63;;
57535;SDS011;43361;49.790;8.960;2022-08-19T12:44:09;46.95;;;22.92;;
57535;SDS011;43361;49.790;8.960;2022-08-19T12:54:13;42.80;;;20.67;;
57535;SDS011;43361;49.790;8.960;2022-08-19T13:04:14;35.53;;;18.00;;
57535;SDS011;43361;49.790;8.960;2022-08-19T13:14:17;36.42;;;17.23;;
57535;SDS011;43361;49.790;8.960;2022-08-19T13:24:18;28.95;;;17.17;;
57535;SDS011;43361;49.790;8.960;2022-08-19T13:34:25;33.28;;;16.55;;
57535;SDS011;43361;49.790;8.960;2022-08-19T13:44:26;32.00;;;16.35;;
57535;SDS011;43361;49.790;8.960;2022-08-19T13:54:30;26.33;;;15.23;;
57535;SDS011;43361;49.790;8.960;2022-08-19T14:04:31;23.65;;;13.90;;
57535;SDS011;43361;49.790;8.960;2022-08-19T14:14:33;21.08;;;12.70;;
57535;SDS011;43361;49.790;8.960;2022-08-19T14:24:36;33.88;;;13.52;;
57535;SDS011;43361;49.790;8.960;2022-08-19T14:34:38;30.55;;;13.65;;
57535;SDS011;43361;49.790;8.960;2022-08-19T14:44:38;34.17;;;13.73;;
57535;SDS011;43361;49.790;8.960;2022-08-19T14:54:40;31.65;;;13.18;;
57535;SDS011;43361;49.790;8.960;2022-08-19T15:04:42;22.38;;;12.55;;
57535;SDS011;43361;49.790;8.960;2022-08-19T15:14:45;22.40;;;12.38;;
57535;SDS011;43361;49.790;8.960;2022-08-19T15:24:50;25.23;;;13.13;;
57535;SDS011;43361;49.790;8.960;2022-08-19T15:34:52;25.75;;;12.90;;
57535;SDS011;43361;49.790;8.960;2022-08-19T15:44:52;22.45;;;12.57;;
57535;SDS011;43361;49.790;8.960;2022-08-19T15:54:54;22.92;;;12.95;;
57535;SDS011;43361;49.790;8.960;2022-08-19T16:04:54;23.80;;;11.30;;
57535;SDS011;43361;49.790;8.960;2022-08-19T16:15:15;24.70;;;12.77;;
57535;SDS011;43361;49.790;8.960;2022-08-19T16:25:15;23.48;;;13.00;;
57535;SDS011;43361;49.790;8.960;2022-08-19T16:35:17;28.08;;;13.30;;
57535;SDS011;43361;49.790;8.960;2022-08-19T16:45:17;21.80;;;12.05;;
57535;SDS011;43361;49.790;8.960;2022-08-19T16:55:20;28.38;;;11.90;;
57535;SDS011;43361;49.790;8.960;2022-08-19T17:05:21;24.83;;;11.68;;
57535;SDS011;43361;49.790;8.960;2022-08-19T17:15:23;20.83;;;11.80;;
57535;SDS011;43361;49.790;8.960;2022-08-19T17:25:24;19.98;;;11.82;;
57535;SDS011;43361;49.790;8.960;2022-08-19T17:35:26;19.98;;;11.55;;
57535;SDS011;43361;49.790;8.960;2022-08-19T17:45:26;29.10;;;14.07;;
57535;SDS011;43361;49.790;8.960;2022-08-19T17:55:28;27.42;;;11.60;;
57535;SDS011;43361;49.790;8.960;2022-08-19T18:05:31;18.33;;;10.27;;
57535;SDS011;43361;49.790;8.960;2022-08-19T18:15:33;17.50;;;9.45;;
57535;SDS011;43361;49.790;8.960;2022-08-19T18:25:33;17.40;;;7.70;;
57535;SDS011;43361;49.790;8.960;2022-08-19T18:35:35;14.00;;;6.60;;
57535;SDS011;43361;49.790;8.960;2022-08-19T18:45:38;13.80;;;7.60;;
57535;SDS011;43361;49.790;8.960;2022-08-19T18:55:59;17.13;;;7.77;;
57535;SDS011;43361;49.790;8.960;2022-08-19T19:05:59;12.30;;;7.85;;
57535;SDS011;43361;49.790;8.960;2022-08-19T19:16:02;13.32;;;7.88;;
57535;SDS011;43361;49.790;8.960;2022-08-19T19:26:03;15.27;;;8.30;;
57535;SDS011;43361;49.790;8.960;2022-08-19T19:36:05;11.57;;;7.70;;
57535;SDS011;43361;49.790;8.960;2022-08-19T19:46:06;13.90;;;8.40;;
57535;SDS011;43361;49.790;8.960;2022-08-19T19:56:08;14.98;;;8.25;;
57535;SDS011;43361;49.790;8.960;2022-08-19T20:06:10;16.90;;;8.60;;
57535;SDS011;43361;49.790;8.960;2022-08-19T20:16:12;14.80;;;8.68;;
57535;SDS011;43361;49.790;8.960;2022-08-19T20:26:12;15.05;;;8.50;;
57535;SDS011;43361;49.790;8.960;2022-08-19T20:36:14;15.60;;;8.43;;
57535;SDS011;43361;49.790;8.960;2022-08-19T20:46:15;15.88;;;8.35;;
57535;SDS011;43361;49.790;8.960;2022-08-19T20:56:17;17.33;;;8.50;;
57535;SDS011;43361;49.790;8.960;2022-08-19T21:06:18;13.27;;;8.07;;
57535;SDS011;43361;49.790;8.960;2022-08-19T21:16:19;11.77;;;8.32;;
57535;SDS011;43361;49.790;8.960;2022-08-19T21:26:20;11.70;;;8.38;;
57535;SDS011;43361;49.790;8.960;2022-08-19T21:36:22;11.90;;;8.07;;
57535;SDS011;43361;49.790;8.960;2022-08-19T21:46:23;9.88;;;7.25;;
57535;SDS011;43361;49.790;8.960;2022-08-19T21:56:25;12.80;;;8.15;;
57535;SDS011;43361;49.790;8.960;2022-08-19T22:06:25;11.43;;;7.68;;
57535;SDS011;43361;49.790;8.960;2022-08-19T22:16:27;10.85;;;7.57;;
57535;SDS011;43361;49.790;8.960;2022-08-19T22:26:28;11.57;;;7.68;;
57535;SDS011;43361;49.790;8.960;2022-08-19T22:36:30;11.97;;;7.93;;
57535;SDS011;43361;49.790;8.960;2022-08-19T22:46:31;9.50;;;7.30;;
57535;SDS011;43361;49.790;8.960;2022-08-19T22:56:34;11.18;;;8.00;;
57535;SDS011;43361;49.790;8.960;2022-08-19T23:06:35;9.40;;;7.40;;
57535;SDS011;43361;49.790;8.960;2022-08-19T23:16:37;10.73;;;7.85;;
57535;SDS011;43361;49.790;8.960;2022-08-19T23:26:38;10.63;;;8.18;;
57535;SDS011;43361;49.790;8.960;2022-08-19T23:36:59;10.57;;;7.30;;
57535;SDS011;43361;49.790;8.960;2022-08-19T23:47:00;9.57;;;7.38;;
57535;SDS011;43361;49.790;8.960;2022-08-19T23:57:03;11.63;;;7.65;;
